sensor_id;sensor_type;location;lat;lon;timestamp;temperature;humidity
939;DHT22;456;53.584;9.968;2024-02-21T00:01:36;16.80;28.10
939;DHT22;456;53.584;9.968;2024-02-21T00:04:02;16.80;28.20
939;DHT22;456;53.584;9.968;2024-02-21T00:06:27;16.80;28.10
939;DHT22;456;53.584;9.968;2024-02-21T00:08:53;16.80;28.20
939;DHT22;456;53.584;9.968;2024-02-21T00:11:18;16.70;28.10
939;DHT22;456;53.584;9.968;2024-02-21T00:13:44;16.70;28.10
939;DHT22;456;53.584;9.968;2024-02-21T00:16:09;16.70;28.20
939;DHT22;456;53.584;9.968;2024-02-21T00:18:36;16.70;28.20
939;DHT22;456;53.584;9.968;2024-02-21T00:21:02;16.70;28.10
939;DHT22;456;53.584;9.968;2024-02-21T00:23:28;16.70;28.30
939;DHT22;456;53.584;9.968;2024-02-21T00:25:54;16.70;28.20
939;DHT22;456;53.584;9.968;2024-02-21T00:28:19;16.70;28.30
939;DHT22;456;53.584;9.968;2024-02-21T00:30:46;16.70;28.30
939;DHT22;456;53.584;9.968;2024-02-21T00:33:13;16.70;28.30
939;DHT22;456;53.584;9.968;2024-02-21T00:35:39;16.70;28.30
939;DHT22;456;53.584;9.968;2024-02-21T00:38:05;16.70;28.30
939;DHT22;456;53.584;9.968;2024-02-21T00:40:30;16.70;28.30
939;DHT22;456;53.584;9.968;2024-02-21T00:42:56;16.70;28.40
939;DHT22;456;53.584;9.968;2024-02-21T00:45:22;16.70;28.30
939;DHT22;456;53.584;9.968;2024-02-21T00:47:47;16.70;28.40
939;DHT22;456;53.584;9.968;2024-02-21T00:50:13;16.70;28.40
939;DHT22;456;53.584;9.968;2024-02-21T00:52:38;16.70;28.40
939;DHT22;456;53.584;9.968;2024-02-21T00:55:05;16.70;28.40
939;DHT22;456;53.584;9.968;2024-02-21T00:57:30;16.70;28.40
939;DHT22;456;53.584;9.968;2024-02-21T00:59:57;16.70;28.40
939;DHT22;456;53.584;9.968;2024-02-21T01:02:23;16.70;28.40
939;DHT22;456;53.584;9.968;2024-02-21T01:04:48;16.70;28.40
939;DHT22;456;53.584;9.968;2024-02-21T01:07:14;16.70;28.40
939;DHT22;456;53.584;9.968;2024-02-21T01:09:39;16.70;28.50
939;DHT22;456;53.584;9.968;2024-02-21T01:12:05;16.70;28.40
939;DHT22;456;53.584;9.968;2024-02-21T01:14:31;16.70;28.50
939;DHT22;456;53.584;9.968;2024-02-21T01:16:57;16.70;28.40
939;DHT22;456;53.584;9.968;2024-02-21T01:19:23;16.70;29.00
939;DHT22;456;53.584;9.968;2024-02-21T01:21:48;16.70;28.40
939;DHT22;456;53.584;9.968;2024-02-21T01:24:14;16.60;28.40
939;DHT22;456;53.584;9.968;2024-02-21T01:26:40;16.70;28.50
939;DHT22;456;53.584;9.968;2024-02-21T01:29:05;16.60;28.40
939;DHT22;456;53.584;9.968;2024-02-21T01:31:31;16.70;28.50
939;DHT22;456;53.584;9.968;2024-02-21T01:33:56;16.70;28.50
939;DHT22;456;53.584;9.968;2024-02-21T01:36:23;16.70;28.60
939;DHT22;456;53.584;9.968;2024-02-21T01:38:49;16.60;28.50
939;DHT22;456;53.584;9.968;2024-02-21T01:41:14;16.60;28.50
939;DHT22;456;53.584;9.968;2024-02-21T01:43:40;16.60;28.40
939;DHT22;456;53.584;9.968;2024-02-21T01:46:05;16.60;28.50
939;DHT22;456;53.584;9.968;2024-02-21T01:48:31;16.60;28.50
939;DHT22;456;53.584;9.968;2024-02-21T01:50:57;16.60;28.50
939;DHT22;456;53.584;9.968;2024-02-21T01:53:27;16.60;28.60
939;DHT22;456;53.584;9.968;2024-02-21T01:55:54;16.60;28.60
939;DHT22;456;53.584;9.968;2024-02-21T01:58:21;16.60;28.60
939;DHT22;456;53.584;9.968;2024-02-21T02:00:47;16.60;28.60
939;DHT22;456;53.584;9.968;2024-02-21T02:03:13;16.60;28.60
939;DHT22;456;53.584;9.968;2024-02-21T02:05:51;16.60;28.60
939;DHT22;456;53.584;9.968;2024-02-21T02:08:20;16.60;28.60
939;DHT22;456;53.584;9.968;2024-02-21T02:10:47;16.60;28.70
939;DHT22;456;53.584;9.968;2024-02-21T02:13:13;16.60;28.70
939;DHT22;456;53.584;9.968;2024-02-21T02:15:47;16.60;28.70
939;DHT22;456;53.584;9.968;2024-02-21T02:18:14;16.60;28.60
939;DHT22;456;53.584;9.968;2024-02-21T02:20:40;16.60;28.60
939;DHT22;456;53.584;9.968;2024-02-21T02:23:26;16.60;28.60
939;DHT22;456;53.584;9.968;2024-02-21T02:25:53;16.60;28.60
939;DHT22;456;53.584;9.968;2024-02-21T02:28:19;16.60;28.70
939;DHT22;456;53.584;9.968;2024-02-21T02:30:45;16.60;28.70
939;DHT22;456;53.584;9.968;2024-02-21T02:33:11;16.60;28.70
939;DHT22;456;53.584;9.968;2024-02-21T02:35:36;16.60;28.70
939;DHT22;456;53.584;9.968;2024-02-21T02:38:03;16.60;28.70
939;DHT22;456;53.584;9.968;2024-02-21T02:40:29;16.60;28.70
939;DHT22;456;53.584;9.968;2024-02-21T02:42:54;16.60;28.70
939;DHT22;456;53.584;9.968;2024-02-21T02:45:21;16.60;28.70
939;DHT22;456;53.584;9.968;2024-02-21T02:47:48;16.60;28.70
939;DHT22;456;53.584;9.968;2024-02-21T02:50:14;16.60;28.70
939;DHT22;456;53.584;9.968;2024-02-21T02:52:40;16.60;28.70
939;DHT22;456;53.584;9.968;2024-02-21T02:55:06;16.60;28.70
939;DHT22;456;53.584;9.968;2024-02-21T02:57:32;16.60;28.70
939;DHT22;456;53.584;9.968;2024-02-21T02:59:58;16.60;28.70
939;DHT22;456;53.584;9.968;2024-02-21T03:02:24;16.60;28.80
939;DHT22;456;53.584;9.968;2024-02-21T03:04:49;16.60;28.70
939;DHT22;456;53.584;9.968;2024-02-21T03:07:15;16.60;28.70
939;DHT22;456;53.584;9.968;2024-02-21T03:09:42;16.60;28.80
939;DHT22;456;53.584;9.968;2024-02-21T03:12:10;16.60;28.80
939;DHT22;456;53.584;9.968;2024-02-21T03:14:37;16.60;28.70
939;DHT22;456;53.584;9.968;2024-02-21T03:17:03;16.60;28.70
939;DHT22;456;53.584;9.968;2024-02-21T03:19:28;16.60;28.70
939;DHT22;456;53.584;9.968;2024-02-21T03:21:55;16.60;29.20
939;DHT22;456;53.584;9.968;2024-02-21T03:24:20;16.60;28.70
939;DHT22;456;53.584;9.968;2024-02-21T03:26:47;16.60;28.70
939;DHT22;456;53.584;9.968;2024-02-21T03:29:14;16.50;28.60
939;DHT22;456;53.584;9.968;2024-02-21T03:31:40;16.50;28.70
939;DHT22;456;53.584;9.968;2024-02-21T03:34:06;16.60;28.70
939;DHT22;456;53.584;9.968;2024-02-21T03:36:31;16.50;28.70
939;DHT22;456;53.584;9.968;2024-02-21T03:38:57;16.60;28.70
939;DHT22;456;53.584;9.968;2024-02-21T03:41:22;16.60;28.70
939;DHT22;456;53.584;9.968;2024-02-21T03:43:48;16.50;28.70
939;DHT22;456;53.584;9.968;2024-02-21T03:46:14;16.50;28.70
939;DHT22;456;53.584;9.968;2024-02-21T03:48:40;16.50;28.60
939;DHT22;456;53.584;9.968;2024-02-21T03:51:06;16.50;28.70
939;DHT22;456;53.584;9.968;2024-02-21T03:53:32;16.50;28.70
939;DHT22;456;53.584;9.968;2024-02-21T03:56:00;16.50;28.70
939;DHT22;456;53.584;9.968;2024-02-21T03:58:28;16.50;28.70
939;DHT22;456;53.584;9.968;2024-02-21T04:00:54;16.50;28.60
939;DHT22;456;53.584;9.968;2024-02-21T04:03:19;16.50;28.70
939;DHT22;456;53.584;9.968;2024-02-21T04:05:45;16.50;28.60
939;DHT22;456;53.584;9.968;2024-02-21T04:08:11;16.50;28.60
939;DHT22;456;53.584;9.968;2024-02-21T04:10:37;16.50;28.60
939;DHT22;456;53.584;9.968;2024-02-21T04:13:03;16.50;28.60
939;DHT22;456;53.584;9.968;2024-02-21T04:15:29;16.50;28.60
939;DHT22;456;53.584;9.968;2024-02-21T04:17:54;16.50;28.60
939;DHT22;456;53.584;9.968;2024-02-21T04:20:20;16.50;28.60
939;DHT22;456;53.584;9.968;2024-02-21T04:22:46;16.50;28.70
939;DHT22;456;53.584;9.968;2024-02-21T04:25:12;16.50;28.60
939;DHT22;456;53.584;9.968;2024-02-21T04:27:38;16.50;28.70
939;DHT22;456;53.584;9.968;2024-02-21T04:30:05;16.50;28.60
939;DHT22;456;53.584;9.968;2024-02-21T04:32:30;16.50;28.70
939;DHT22;456;53.584;9.968;2024-02-21T04:34:56;16.50;28.70
939;DHT22;456;53.584;9.968;2024-02-21T04:37:21;16.50;28.70
939;DHT22;456;53.584;9.968;2024-02-21T04:39:48;16.50;28.80
939;DHT22;456;53.584;9.968;2024-02-21T04:42:14;16.50;28.80
939;DHT22;456;53.584;9.968;2024-02-21T04:44:40;16.50;28.80
939;DHT22;456;53.584;9.968;2024-02-21T04:47:06;16.50;28.80
939;DHT22;456;53.584;9.968;2024-02-21T04:49:32;16.50;28.80
939;DHT22;456;53.584;9.968;2024-02-21T04:51:58;16.50;28.90
939;DHT22;456;53.584;9.968;2024-02-21T04:54:24;16.50;28.80
939;DHT22;456;53.584;9.968;2024-02-21T04:56:50;16.50;28.60
939;DHT22;456;53.584;9.968;2024-02-21T04:59:15;16.60;28.40
939;DHT22;456;53.584;9.968;2024-02-21T05:01:41;16.70;28.40
939;DHT22;456;53.584;9.968;2024-02-21T05:04:06;16.70;28.40
939;DHT22;456;53.584;9.968;2024-02-21T05:06:40;16.70;28.30
939;DHT22;456;53.584;9.968;2024-02-21T05:09:06;16.80;28.40
939;DHT22;456;53.584;9.968;2024-02-21T05:11:32;16.80;28.30
939;DHT22;456;53.584;9.968;2024-02-21T05:13:58;16.80;28.40
939;DHT22;456;53.584;9.968;2024-02-21T05:16:23;16.80;28.40
939;DHT22;456;53.584;9.968;2024-02-21T05:18:49;16.80;28.30
939;DHT22;456;53.584;9.968;2024-02-21T05:21:14;16.90;28.40
939;DHT22;456;53.584;9.968;2024-02-21T05:23:40;16.90;28.40
939;DHT22;456;53.584;9.968;2024-02-21T05:26:06;16.90;28.40
939;DHT22;456;53.584;9.968;2024-02-21T05:28:31;16.90;28.30
939;DHT22;456;53.584;9.968;2024-02-21T05:30:57;16.90;28.30
939;DHT22;456;53.584;9.968;2024-02-21T05:33:24;16.90;28.30
939;DHT22;456;53.584;9.968;2024-02-21T05:35:49;16.90;28.40
939;DHT22;456;53.584;9.968;2024-02-21T05:38:15;16.90;28.40
939;DHT22;456;53.584;9.968;2024-02-21T05:40:41;17.00;28.40
939;DHT22;456;53.584;9.968;2024-02-21T05:43:07;17.00;28.50
939;DHT22;456;53.584;9.968;2024-02-21T05:45:34;17.00;28.50
939;DHT22;456;53.584;9.968;2024-02-21T05:48:00;17.00;28.50
939;DHT22;456;53.584;9.968;2024-02-21T05:50:25;17.00;28.40
939;DHT22;456;53.584;9.968;2024-02-21T05:52:53;17.10;28.40
939;DHT22;456;53.584;9.968;2024-02-21T05:55:19;17.10;28.40
939;DHT22;456;53.584;9.968;2024-02-21T05:57:45;17.10;28.40
939;DHT22;456;53.584;9.968;2024-02-21T06:00:11;17.10;28.40
939;DHT22;456;53.584;9.968;2024-02-21T06:02:36;17.10;28.40
939;DHT22;456;53.584;9.968;2024-02-21T06:05:02;17.10;28.40
939;DHT22;456;53.584;9.968;2024-02-21T06:07:28;17.10;28.40
939;DHT22;456;53.584;9.968;2024-02-21T06:09:53;17.10;28.40
939;DHT22;456;53.584;9.968;2024-02-21T06:12:19;17.10;28.40
939;DHT22;456;53.584;9.968;2024-02-21T06:14:45;17.10;28.50
939;DHT22;456;53.584;9.968;2024-02-21T06:17:10;17.10;28.40
939;DHT22;456;53.584;9.968;2024-02-21T06:19:40;17.10;28.40
939;DHT22;456;53.584;9.968;2024-02-21T06:22:06;17.10;28.40
939;DHT22;456;53.584;9.968;2024-02-21T06:24:34;17.10;28.40
939;DHT22;456;53.584;9.968;2024-02-21T06:26:59;17.10;28.40
939;DHT22;456;53.584;9.968;2024-02-21T06:29:25;17.10;28.40
939;DHT22;456;53.584;9.968;2024-02-21T06:31:50;17.20;28.50
939;DHT22;456;53.584;9.968;2024-02-21T06:34:16;17.20;28.50
939;DHT22;456;53.584;9.968;2024-02-21T06:36:42;17.20;28.40
939;DHT22;456;53.584;9.968;2024-02-21T06:39:07;17.20;28.40
939;DHT22;456;53.584;9.968;2024-02-21T06:41:33;17.20;28.40
939;DHT22;456;53.584;9.968;2024-02-21T06:43:59;17.20;28.40
939;DHT22;456;53.584;9.968;2024-02-21T06:46:28;17.20;28.40
939;DHT22;456;53.584;9.968;2024-02-21T06:48:54;17.20;28.40
939;DHT22;456;53.584;9.968;2024-02-21T06:51:22;17.20;28.40
939;DHT22;456;53.584;9.968;2024-02-21T06:53:47;17.20;28.40
939;DHT22;456;53.584;9.968;2024-02-21T06:56:13;17.20;28.40
939;DHT22;456;53.584;9.968;2024-02-21T06:58:39;17.20;29.00
939;DHT22;456;53.584;9.968;2024-02-21T07:01:04;17.20;28.40
939;DHT22;456;53.584;9.968;2024-02-21T07:03:30;17.10;28.30
939;DHT22;456;53.584;9.968;2024-02-21T07:05:55;17.20;28.40
939;DHT22;456;53.584;9.968;2024-02-21T07:08:21;17.20;28.40
939;DHT22;456;53.584;9.968;2024-02-21T07:10:47;17.10;28.20
939;DHT22;456;53.584;9.968;2024-02-21T07:13:13;17.10;28.30
939;DHT22;456;53.584;9.968;2024-02-21T07:15:40;17.10;28.30
939;DHT22;456;53.584;9.968;2024-02-21T07:18:06;17.10;28.20
939;DHT22;456;53.584;9.968;2024-02-21T07:20:32;17.10;28.30
939;DHT22;456;53.584;9.968;2024-02-21T07:22:59;17.10;28.20
939;DHT22;456;53.584;9.968;2024-02-21T07:25:25;17.10;28.30
939;DHT22;456;53.584;9.968;2024-02-21T07:27:50;17.10;28.30
939;DHT22;456;53.584;9.968;2024-02-21T07:30:16;17.10;28.30
939;DHT22;456;53.584;9.968;2024-02-21T07:32:41;17.10;28.30
939;DHT22;456;53.584;9.968;2024-02-21T07:35:07;17.10;28.40
939;DHT22;456;53.584;9.968;2024-02-21T07:37:36;17.10;28.40
939;DHT22;456;53.584;9.968;2024-02-21T07:40:06;17.00;28.40
939;DHT22;456;53.584;9.968;2024-02-21T07:42:32;17.10;28.40
939;DHT22;456;53.584;9.968;2024-02-21T07:44:58;17.00;28.40
939;DHT22;456;53.584;9.968;2024-02-21T07:47:23;17.00;28.50
939;DHT22;456;53.584;9.968;2024-02-21T07:49:49;17.00;28.40
939;DHT22;456;53.584;9.968;2024-02-21T07:52:15;17.00;28.50
939;DHT22;456;53.584;9.968;2024-02-21T07:54:41;17.00;28.50
939;DHT22;456;53.584;9.968;2024-02-21T07:57:09;17.00;28.50
939;DHT22;456;53.584;9.968;2024-02-21T07:59:35;17.00;28.50
939;DHT22;456;53.584;9.968;2024-02-21T08:02:01;17.00;28.50
939;DHT22;456;53.584;9.968;2024-02-21T08:04:26;17.00;28.50
939;DHT22;456;53.584;9.968;2024-02-21T08:06:55;17.00;28.60
939;DHT22;456;53.584;9.968;2024-02-21T08:09:26;17.00;28.60
939;DHT22;456;53.584;9.968;2024-02-21T08:11:53;17.00;28.60
939;DHT22;456;53.584;9.968;2024-02-21T08:14:19;17.00;28.60
939;DHT22;456;53.584;9.968;2024-02-21T08:16:44;17.00;28.60
939;DHT22;456;53.584;9.968;2024-02-21T08:19:11;16.90;28.50
939;DHT22;456;53.584;9.968;2024-02-21T08:21:36;16.90;28.60
939;DHT22;456;53.584;9.968;2024-02-21T08:24:02;16.90;28.60
939;DHT22;456;53.584;9.968;2024-02-21T08:26:27;16.90;28.60
939;DHT22;456;53.584;9.968;2024-02-21T08:28:56;16.90;28.60
939;DHT22;456;53.584;9.968;2024-02-21T08:31:24;16.90;28.60
939;DHT22;456;53.584;9.968;2024-02-21T08:33:59;16.90;28.60
939;DHT22;456;53.584;9.968;2024-02-21T08:36:29;16.90;28.70
939;DHT22;456;53.584;9.968;2024-02-21T08:38:55;16.90;28.70
939;DHT22;456;53.584;9.968;2024-02-21T08:41:20;16.90;28.70
939;DHT22;456;53.584;9.968;2024-02-21T08:43:49;16.90;28.70
939;DHT22;456;53.584;9.968;2024-02-21T08:46:14;16.90;28.70
939;DHT22;456;53.584;9.968;2024-02-21T08:48:40;16.90;28.70
939;DHT22;456;53.584;9.968;2024-02-21T08:51:06;16.90;28.80
939;DHT22;456;53.584;9.968;2024-02-21T08:53:31;16.90;28.80
939;DHT22;456;53.584;9.968;2024-02-21T08:55:57;16.90;28.80
939;DHT22;456;53.584;9.968;2024-02-21T08:58:23;16.90;28.90
939;DHT22;456;53.584;9.968;2024-02-21T09:00:51;16.90;28.80
939;DHT22;456;53.584;9.968;2024-02-21T09:03:16;16.90;28.80
939;DHT22;456;53.584;9.968;2024-02-21T09:05:43;16.90;28.80
939;DHT22;456;53.584;9.968;2024-02-21T09:08:08;16.90;28.80
939;DHT22;456;53.584;9.968;2024-02-21T09:10:34;16.90;28.80
939;DHT22;456;53.584;9.968;2024-02-21T09:13:00;16.90;28.80
939;DHT22;456;53.584;9.968;2024-02-21T09:15:25;16.80;28.80
939;DHT22;456;53.584;9.968;2024-02-21T09:17:52;16.90;28.90
939;DHT22;456;53.584;9.968;2024-02-21T09:20:17;16.80;28.80
939;DHT22;456;53.584;9.968;2024-02-21T09:22:43;16.90;28.80
939;DHT22;456;53.584;9.968;2024-02-21T09:25:09;16.80;28.80
939;DHT22;456;53.584;9.968;2024-02-21T09:27:37;16.80;28.90
939;DHT22;456;53.584;9.968;2024-02-21T09:30:04;16.80;28.90
939;DHT22;456;53.584;9.968;2024-02-21T09:32:30;16.80;28.90
939;DHT22;456;53.584;9.968;2024-02-21T09:34:56;16.80;28.90
939;DHT22;456;53.584;9.968;2024-02-21T09:37:21;16.80;28.90
939;DHT22;456;53.584;9.968;2024-02-21T09:39:48;16.80;28.90
939;DHT22;456;53.584;9.968;2024-02-21T09:42:20;16.80;28.90
939;DHT22;456;53.584;9.968;2024-02-21T09:44:46;16.80;29.00
939;DHT22;456;53.584;9.968;2024-02-21T09:47:28;16.80;29.00
939;DHT22;456;53.584;9.968;2024-02-21T09:50:00;16.80;29.00
939;DHT22;456;53.584;9.968;2024-02-21T09:52:27;16.80;29.00
939;DHT22;456;53.584;9.968;2024-02-21T09:54:54;16.80;29.00
939;DHT22;456;53.584;9.968;2024-02-21T09:57:20;16.80;29.00
939;DHT22;456;53.584;9.968;2024-02-21T09:59:48;16.80;29.00
939;DHT22;456;53.584;9.968;2024-02-21T10:02:15;16.80;29.00
939;DHT22;456;53.584;9.968;2024-02-21T10:04:41;16.80;29.00
939;DHT22;456;53.584;9.968;2024-02-21T10:07:07;16.80;29.00
939;DHT22;456;53.584;9.968;2024-02-21T10:09:33;16.80;29.00
939;DHT22;456;53.584;9.968;2024-02-21T10:12:11;16.80;29.00
939;DHT22;456;53.584;9.968;2024-02-21T10:14:38;16.80;29.00
939;DHT22;456;53.584;9.968;2024-02-21T10:17:04;16.80;29.00
939;DHT22;456;53.584;9.968;2024-02-21T10:19:34;16.80;29.00
939;DHT22;456;53.584;9.968;2024-02-21T10:22:04;16.70;29.00
939;DHT22;456;53.584;9.968;2024-02-21T10:24:31;16.80;29.00
939;DHT22;456;53.584;9.968;2024-02-21T10:27:08;16.80;29.00
939;DHT22;456;53.584;9.968;2024-02-21T10:29:37;16.80;29.00
939;DHT22;456;53.584;9.968;2024-02-21T10:32:07;16.80;29.00
939;DHT22;456;53.584;9.968;2024-02-21T10:34:33;16.80;29.10
939;DHT22;456;53.584;9.968;2024-02-21T10:37:09;16.80;29.10
939;DHT22;456;53.584;9.968;2024-02-21T10:39:37;16.80;29.00
939;DHT22;456;53.584;9.968;2024-02-21T10:42:04;16.80;29.20
939;DHT22;456;53.584;9.968;2024-02-21T10:44:31;16.80;29.10
939;DHT22;456;53.584;9.968;2024-02-21T10:46:58;16.80;29.10
939;DHT22;456;53.584;9.968;2024-02-21T10:49:26;16.70;29.10
939;DHT22;456;53.584;9.968;2024-02-21T10:52:00;16.80;29.20
939;DHT22;456;53.584;9.968;2024-02-21T10:54:49;16.80;29.10
939;DHT22;456;53.584;9.968;2024-02-21T10:57:19;16.80;29.20
939;DHT22;456;53.584;9.968;2024-02-21T10:59:47;16.80;29.20
939;DHT22;456;53.584;9.968;2024-02-21T11:02:13;16.80;29.20
939;DHT22;456;53.584;9.968;2024-02-21T11:04:40;16.70;29.10
939;DHT22;456;53.584;9.968;2024-02-21T11:07:07;16.80;29.20
939;DHT22;456;53.584;9.968;2024-02-21T11:09:33;16.70;29.10
939;DHT22;456;53.584;9.968;2024-02-21T11:12:02;16.80;29.20
939;DHT22;456;53.584;9.968;2024-02-21T11:14:29;16.80;29.20
939;DHT22;456;53.584;9.968;2024-02-21T11:16:58;16.70;29.10
939;DHT22;456;53.584;9.968;2024-02-21T11:19:28;16.70;29.10
939;DHT22;456;53.584;9.968;2024-02-21T11:21:55;16.70;29.10
939;DHT22;456;53.584;9.968;2024-02-21T11:24:28;16.70;29.20
939;DHT22;456;53.584;9.968;2024-02-21T11:26:55;16.70;29.10
939;DHT22;456;53.584;9.968;2024-02-21T11:29:24;16.70;29.20
939;DHT22;456;53.584;9.968;2024-02-21T11:31:51;16.70;29.10
939;DHT22;456;53.584;9.968;2024-02-21T11:34:18;16.70;29.20
939;DHT22;456;53.584;9.968;2024-02-21T11:36:49;16.70;29.70
939;DHT22;456;53.584;9.968;2024-02-21T11:39:19;16.70;29.10
939;DHT22;456;53.584;9.968;2024-02-21T11:41:47;16.70;29.20
939;DHT22;456;53.584;9.968;2024-02-21T11:44:13;16.70;29.20
939;DHT22;456;53.584;9.968;2024-02-21T11:46:39;16.70;29.10
939;DHT22;456;53.584;9.968;2024-02-21T11:49:05;16.70;29.10
939;DHT22;456;53.584;9.968;2024-02-21T11:51:31;16.70;29.10
939;DHT22;456;53.584;9.968;2024-02-21T11:53:57;16.70;29.20
939;DHT22;456;53.584;9.968;2024-02-21T11:56:22;16.70;29.20
939;DHT22;456;53.584;9.968;2024-02-21T11:58:49;16.70;29.20
939;DHT22;456;53.584;9.968;2024-02-21T12:01:15;16.70;29.20
939;DHT22;456;53.584;9.968;2024-02-21T12:03:42;16.70;29.20
939;DHT22;456;53.584;9.968;2024-02-21T12:06:15;16.70;29.20
939;DHT22;456;53.584;9.968;2024-02-21T12:08:45;16.70;29.20
939;DHT22;456;53.584;9.968;2024-02-21T12:11:21;16.70;29.20
939;DHT22;456;53.584;9.968;2024-02-21T12:14:03;16.70;29.20
939;DHT22;456;53.584;9.968;2024-02-21T12:16:33;16.70;29.30
939;DHT22;456;53.584;9.968;2024-02-21T12:19:02;16.70;29.20
939;DHT22;456;53.584;9.968;2024-02-21T12:21:33;16.70;29.20
939;DHT22;456;53.584;9.968;2024-02-21T12:24:15;16.70;29.20
939;DHT22;456;53.584;9.968;2024-02-21T12:26:41;16.70;29.20
939;DHT22;456;53.584;9.968;2024-02-21T12:29:07;16.70;29.20
939;DHT22;456;53.584;9.968;2024-02-21T12:31:37;16.70;29.20
939;DHT22;456;53.584;9.968;2024-02-21T12:34:03;16.70;29.20
939;DHT22;456;53.584;9.968;2024-02-21T12:36:30;16.70;29.20
939;DHT22;456;53.584;9.968;2024-02-21T12:38:57;16.70;29.30
939;DHT22;456;53.584;9.968;2024-02-21T12:41:22;16.70;29.30
939;DHT22;456;53.584;9.968;2024-02-21T12:43:48;16.70;29.30
939;DHT22;456;53.584;9.968;2024-02-21T12:46:13;16.70;29.20
939;DHT22;456;53.584;9.968;2024-02-21T12:48:39;16.70;29.30
939;DHT22;456;53.584;9.968;2024-02-21T12:51:05;16.70;29.30
939;DHT22;456;53.584;9.968;2024-02-21T12:53:31;16.70;29.30
939;DHT22;456;53.584;9.968;2024-02-21T12:55:57;16.70;29.30
939;DHT22;456;53.584;9.968;2024-02-21T12:58:22;16.60;29.20
939;DHT22;456;53.584;9.968;2024-02-21T13:00:48;16.70;29.30
939;DHT22;456;53.584;9.968;2024-02-21T13:03:14;16.70;29.30
939;DHT22;456;53.584;9.968;2024-02-21T13:05:40;16.70;29.30
939;DHT22;456;53.584;9.968;2024-02-21T13:08:14;16.70;29.30
939;DHT22;456;53.584;9.968;2024-02-21T13:10:40;16.70;29.30
939;DHT22;456;53.584;9.968;2024-02-21T13:13:05;16.60;29.30
939;DHT22;456;53.584;9.968;2024-02-21T13:15:31;16.60;29.30
939;DHT22;456;53.584;9.968;2024-02-21T13:17:57;16.70;29.30
939;DHT22;456;53.584;9.968;2024-02-21T13:20:27;16.60;29.20
939;DHT22;456;53.584;9.968;2024-02-21T13:22:53;16.60;29.30
939;DHT22;456;53.584;9.968;2024-02-21T13:25:19;16.60;29.20
939;DHT22;456;53.584;9.968;2024-02-21T13:27:47;16.60;29.30
939;DHT22;456;53.584;9.968;2024-02-21T13:30:13;16.60;29.20
939;DHT22;456;53.584;9.968;2024-02-21T13:32:43;16.60;29.20
939;DHT22;456;53.584;9.968;2024-02-21T13:35:11;16.70;29.30
939;DHT22;456;53.584;9.968;2024-02-21T13:37:38;16.60;29.20
939;DHT22;456;53.584;9.968;2024-02-21T13:40:04;16.60;29.20
939;DHT22;456;53.584;9.968;2024-02-21T13:42:30;16.60;29.20
939;DHT22;456;53.584;9.968;2024-02-21T13:44:55;16.60;29.30
939;DHT22;456;53.584;9.968;2024-02-21T13:47:21;16.60;29.20
939;DHT22;456;53.584;9.968;2024-02-21T13:49:47;16.60;29.20
939;DHT22;456;53.584;9.968;2024-02-21T13:52:13;16.60;29.20
939;DHT22;456;53.584;9.968;2024-02-21T13:54:38;16.60;29.20
939;DHT22;456;53.584;9.968;2024-02-21T13:57:04;16.60;29.20
939;DHT22;456;53.584;9.968;2024-02-21T13:59:30;16.60;29.20
939;DHT22;456;53.584;9.968;2024-02-21T14:01:55;16.70;29.30
939;DHT22;456;53.584;9.968;2024-02-21T14:04:21;16.60;29.20
939;DHT22;456;53.584;9.968;2024-02-21T14:06:47;16.60;29.20
939;DHT22;456;53.584;9.968;2024-02-21T14:09:13;16.60;29.30
939;DHT22;456;53.584;9.968;2024-02-21T14:11:38;16.60;29.20
939;DHT22;456;53.584;9.968;2024-02-21T14:14:05;16.60;29.80
939;DHT22;456;53.584;9.968;2024-02-21T14:16:32;16.60;29.30
939;DHT22;456;53.584;9.968;2024-02-21T14:18:58;16.60;29.30
939;DHT22;456;53.584;9.968;2024-02-21T14:21:23;16.60;29.30
939;DHT22;456;53.584;9.968;2024-02-21T14:23:49;16.60;29.20
939;DHT22;456;53.584;9.968;2024-02-21T14:26:15;16.70;29.10
939;DHT22;456;53.584;9.968;2024-02-21T14:28:41;16.70;28.90
939;DHT22;456;53.584;9.968;2024-02-21T14:31:07;16.70;28.90
939;DHT22;456;53.584;9.968;2024-02-21T14:33:37;16.80;28.90
939;DHT22;456;53.584;9.968;2024-02-21T14:36:03;16.80;28.90
939;DHT22;456;53.584;9.968;2024-02-21T14:38:29;16.80;28.80
939;DHT22;456;53.584;9.968;2024-02-21T14:40:55;16.80;28.80
939;DHT22;456;53.584;9.968;2024-02-21T14:43:20;16.90;28.80
939;DHT22;456;53.584;9.968;2024-02-21T14:45:49;16.90;28.80
939;DHT22;456;53.584;9.968;2024-02-21T14:48:15;16.90;28.80
939;DHT22;456;53.584;9.968;2024-02-21T14:50:41;16.90;28.80
939;DHT22;456;53.584;9.968;2024-02-21T14:53:08;16.90;28.80
939;DHT22;456;53.584;9.968;2024-02-21T14:55:34;16.90;28.80
939;DHT22;456;53.584;9.968;2024-02-21T14:58:00;16.90;28.80
939;DHT22;456;53.584;9.968;2024-02-21T15:00:26;16.90;29.00
939;DHT22;456;53.584;9.968;2024-02-21T15:02:58;16.90;28.80
939;DHT22;456;53.584;9.968;2024-02-21T15:05:24;16.90;28.70
939;DHT22;456;53.584;9.968;2024-02-21T15:07:51;16.90;28.80
939;DHT22;456;53.584;9.968;2024-02-21T15:10:17;16.90;28.80
939;DHT22;456;53.584;9.968;2024-02-21T15:12:46;17.00;28.80
939;DHT22;456;53.584;9.968;2024-02-21T15:15:12;17.00;28.90
939;DHT22;456;53.584;9.968;2024-02-21T15:17:38;17.00;28.80
939;DHT22;456;53.584;9.968;2024-02-21T15:20:04;17.00;28.80
939;DHT22;456;53.584;9.968;2024-02-21T15:22:35;17.00;28.80
939;DHT22;456;53.584;9.968;2024-02-21T15:25:01;17.00;28.80
939;DHT22;456;53.584;9.968;2024-02-21T15:27:27;17.00;28.80
939;DHT22;456;53.584;9.968;2024-02-21T15:29:55;17.00;28.80
939;DHT22;456;53.584;9.968;2024-02-21T15:32:23;17.00;28.80
939;DHT22;456;53.584;9.968;2024-02-21T15:34:48;17.00;28.80
939;DHT22;456;53.584;9.968;2024-02-21T15:37:14;17.00;28.80
939;DHT22;456;53.584;9.968;2024-02-21T15:39:42;17.00;28.80
939;DHT22;456;53.584;9.968;2024-02-21T15:42:11;17.00;28.80
939;DHT22;456;53.584;9.968;2024-02-21T15:44:37;17.10;29.10
939;DHT22;456;53.584;9.968;2024-02-21T15:47:03;17.10;28.80
939;DHT22;456;53.584;9.968;2024-02-21T15:49:29;17.10;28.90
939;DHT22;456;53.584;9.968;2024-02-21T15:51:54;17.10;28.80
939;DHT22;456;53.584;9.968;2024-02-21T15:54:20;17.10;28.90
939;DHT22;456;53.584;9.968;2024-02-21T15:56:46;17.00;28.80
939;DHT22;456;53.584;9.968;2024-02-21T15:59:12;17.10;28.80
939;DHT22;456;53.584;9.968;2024-02-21T16:01:38;17.10;28.80
939;DHT22;456;53.584;9.968;2024-02-21T16:04:07;17.10;28.80
939;DHT22;456;53.584;9.968;2024-02-21T16:06:32;17.10;28.80
939;DHT22;456;53.584;9.968;2024-02-21T16:08:58;17.10;28.80
939;DHT22;456;53.584;9.968;2024-02-21T16:11:24;17.10;28.80
939;DHT22;456;53.584;9.968;2024-02-21T16:13:49;17.10;28.70
939;DHT22;456;53.584;9.968;2024-02-21T16:16:16;17.10;28.80
939;DHT22;456;53.584;9.968;2024-02-21T16:18:42;17.10;28.80
939;DHT22;456;53.584;9.968;2024-02-21T16:21:08;17.10;28.80
939;DHT22;456;53.584;9.968;2024-02-21T16:23:34;17.00;28.80
939;DHT22;456;53.584;9.968;2024-02-21T16:26:00;17.00;28.90
939;DHT22;456;53.584;9.968;2024-02-21T16:28:26;17.10;28.90
939;DHT22;456;53.584;9.968;2024-02-21T16:30:52;17.10;29.00